Time;durP1;ratioP1;P1;durP2;ratioP2;P2;SDS_P1;SDS_P2;PMS_P1;PMS_P2;Temp;Humidity;BMP_temperature;BMP_pressure;BME280_temperature;BME280_humidity;BME280_pressure;Samples;Min_cycle;Max_cycle;Signal;HPM_P1;HPM_P2
2023/08/16 00:00:56;;;;;;;6.32;4.50;;;;;;;18.17;92.85;100172.03;5020321;28;20041;-50
2023/08/16 00:03:21;;;;;;;10.05;4.32;;;;;;;18.21;93.03;100181.44;5011609;28;20053;-50
2023/08/16 00:05:48;;;;;;;9.23;4.57;;;;;;;18.18;93.16;100181.63;5023806;28;20049;-52
2023/08/16 00:08:13;;;;;;;12.65;4.82;;;;;;;18.19;93.44;100185.13;5004683;28;20504;-52
2023/08/16 00:10:39;;;;;;;6.30;4.40;;;;;;;18.17;93.63;100185.19;5052003;28;20458;-47
2023/08/16 00:13:06;;;;;;;5.47;4.15;;;;;;;18.17;93.62;100187.81;5029099;28;20068;-52
2023/08/16 00:15:32;;;;;;;8.07;4.82;;;;;;;18.13;93.99;100183.69;5011821;28;20394;-51
2023/08/16 00:17:58;;;;;;;7.90;4.50;;;;;;;18.13;93.87;100186.31;5029073;28;20040;-49
2023/08/16 00:20:27;;;;;;;8.00;4.50;;;;;;;18.12;94.20;100189.88;5001331;28;20057;-49
2023/08/16 00:22:54;;;;;;;7.05;4.43;;;;;;;18.10;94.22;100190.91;5020788;28;20041;-48
2023/08/16 00:25:20;;;;;;;9.38;4.75;;;;;;;18.08;94.23;100190.13;5026907;28;20045;-47
2023/08/16 00:27:46;;;;;;;8.50;4.32;;;;;;;18.07;94.53;100186.66;5027724;28;20060;-49
2023/08/16 00:30:13;;;;;;;7.55;4.40;;;;;;;18.07;94.56;100188.44;5026044;28;20210;-52
2023/08/16 00:32:38;;;;;;;7.43;4.40;;;;;;;18.04;94.66;100200.00;5021072;28;20037;-54
2023/08/16 00:35:05;;;;;;;6.75;4.70;;;;;;;18.02;94.79;100196.59;5006572;28;20056;-51
2023/08/16 00:37:32;;;;;;;7.97;5.10;;;;;;;17.76;94.74;100166.50;5021868;28;20480;-49
2023/08/16 00:39:58;;;;;;;8.65;4.38;;;;;;;17.97;94.85;100200.44;5010427;28;20036;-51
2023/08/16 00:42:23;;;;;;;7.80;5.00;;;;;;;17.89;95.01;100189.50;5026577;28;20045;-44
2023/08/16 00:44:50;;;;;;;6.75;4.70;;;;;;;17.95;95.22;100202.31;5026184;28;20045;-51
2023/08/16 00:47:16;;;;;;;7.95;4.72;;;;;;;17.89;95.13;100195.63;5026231;28;20068;-52
2023/08/16 00:49:43;;;;;;;9.93;4.70;;;;;;;17.71;95.45;100171.16;5028116;28;20049;-48
2023/08/16 00:52:09;;;;;;;14.10;4.82;;;;;;;17.87;95.72;100205.34;5022025;28;20101;-50
2023/08/16 00:54:38;;;;;;;9.02;4.60;;;;;;;17.90;95.59;100207.00;5001306;28;20124;-47
2023/08/16 00:57:04;;;;;;;6.30;4.43;;;;;;;17.89;95.72;100213.19;5006991;28;20136;-52
2023/08/16 00:59:30;;;;;;;8.10;4.70;;;;;;;17.87;95.45;100208.00;5020606;28;20093;-50
2023/08/16 01:01:56;;;;;;;7.72;4.55;;;;;;;17.82;95.59;100204.78;5021347;28;20045;-49
2023/08/16 01:04:22;;;;;;;8.55;4.25;;;;;;;17.83;95.70;100211.72;5019816;28;20058;-51
2023/08/16 01:06:48;;;;;;;8.70;4.40;;;;;;;17.84;95.66;100204.69;5024418;28;21644;-49
2023/08/16 01:09:14;;;;;;;10.82;4.50;;;;;;;17.69;96.01;100183.56;4994585;28;20073;-52
2023/08/16 01:11:54;;;;;;;7.28;4.45;;;;;;;17.83;96.10;100216.16;5026929;28;20033;-48
2023/08/16 01:14:25;;;;;;;9.45;4.82;;;;;;;17.82;96.03;100214.44;5010510;28;20049;-52
2023/08/16 01:16:51;;;;;;;5.95;4.45;;;;;;;17.70;96.03;100201.03;5010040;28;20041;-48
2023/08/16 01:19:28;;;;;;;7.75;4.20;;;;;;;17.74;96.09;100217.50;5027178;28;20871;-47
2023/08/16 01:22:16;;;;;;;6.22;4.30;;;;;;;17.75;96.45;100227.94;5016045;28;20125;-47
2023/08/16 01:25:02;;;;;;;10.35;4.80;;;;;;;17.58;96.45;100193.81;5009814;28;20049;-49
2023/08/16 01:27:29;;;;;;;8.02;4.03;;;;;;;17.71;96.38;100215.03;5026742;28;20128;-47
2023/08/16 01:29:55;;;;;;;10.48;4.22;;;;;;;17.69;96.37;100222.19;5022303;28;20049;-48
2023/08/16 01:32:22;;;;;;;6.07;4.22;;;;;;;17.67;96.54;100224.88;5026291;28;20037;-46
2023/08/16 01:34:48;;;;;;;7.70;4.70;;;;;;;17.68;96.73;100229.22;5024476;28;20139;-48
2023/08/16 01:37:15;;;;;;;11.00;4.53;;;;;;;17.68;96.70;100220.47;5022478;28;20511;-47
2023/08/16 01:39:41;;;;;;;11.80;4.70;;;;;;;17.67;96.74;100227.50;5024017;28;20045;-47
2023/08/16 01:42:09;;;;;;;9.40;4.47;;;;;;;17.67;96.78;100232.78;5007261;28;20079;-50
2023/08/16 01:44:35;;;;;;;5.97;4.32;;;;;;;17.66;96.68;100225.81;5004989;28;20044;-50
2023/08/16 01:47:02;;;;;;;8.32;4.38;;;;;;;17.65;96.92;100226.72;5021282;28;20041;-47
2023/08/16 01:49:28;;;;;;;6.57;3.83;;;;;;;17.65;96.74;100237.25;5019702;28;20564;-52
2023/08/16 01:51:54;;;;;;;9.27;4.47;;;;;;;17.66;96.87;100233.69;5022513;28;20048;-48
2023/08/16 01:54:20;;;;;;;6.88;4.25;;;;;;;17.64;96.57;100232.91;5013607;28;20522;-48
2023/08/16 01:56:45;;;;;;;8.88;4.43;;;;;;;17.46;96.64;100212.03;5023069;28;20468;-49
2023/08/16 01:59:11;;;;;;;7.35;4.43;;;;;;;17.63;96.59;100247.03;5016311;28;20535;-48
2023/08/16 02:01:37;;;;;;;4.68;4.10;;;;;;;17.35;96.48;100208.19;5021893;28;20425;-48
2023/08/16 02:04:03;;;;;;;6.82;3.97;;;;;;;17.62;96.45;100247.09;5020591;28;20050;-50
2023/08/16 02:06:30;;;;;;;5.03;4.35;;;;;;;17.60;96.44;100239.28;5019842;28;20043;-51
2023/08/16 02:08:58;;;;;;;8.03;4.27;;;;;;;17.59;96.16;100240.22;5025908;28;20160;-51
2023/08/16 02:11:24;;;;;;;10.07;4.70;;;;;;;17.59;96.42;100247.22;5027612;28;20038;-52
2023/08/16 02:13:52;;;;;;;8.25;4.70;;;;;;;17.60;96.58;100260.31;5006863;28;20042;-46
2023/08/16 02:16:26;;;;;;;8.02;4.25;;;;;;;17.58;96.54;100251.66;5019010;28;20120;-51
2023/08/16 02:19:12;;;;;;;4.78;3.90;;;;;;;17.38;96.54;100219.47;4995844;28;20099;-51
2023/08/16 02:21:38;;;;;;;6.43;4.28;;;;;;;17.45;96.40;100231.34;5026286;28;20045;-53
2023/08/16 02:24:03;;;;;;;8.63;3.90;;;;;;;17.59;96.40;100253.38;5013123;28;20041;-47
2023/08/16 02:26:29;;;;;;;7.45;4.25;;;;;;;17.47;96.72;100242.63;5013623;28;20056;-49
2023/08/16 02:28:56;;;;;;;8.38;4.60;;;;;;;17.56;96.74;100252.66;5030124;28;20046;-50
2023/08/16 02:31:23;;;;;;;7.65;4.18;;;;;;;17.62;96.82;100268.13;5013646;28;20041;-52
2023/08/16 02:33:50;;;;;;;9.77;3.95;;;;;;;17.61;96.50;100269.06;5032265;28;20073;-49
2023/08/16 02:36:16;;;;;;;6.68;4.25;;;;;;;17.43;96.41;100241.13;5018606;28;20038;-49
2023/08/16 02:38:42;;;;;;;5.65;4.18;;;;;;;17.60;96.53;100265.59;5046548;28;20171;-48
2023/08/16 02:41:08;;;;;;;4.70;3.75;;;;;;;17.59;96.61;100261.25;5011463;28;20064;-46
2023/08/16 02:43:34;;;;;;;6.43;4.15;;;;;;;17.64;96.34;100264.47;5031013;28;20448;-51
2023/08/16 02:46:00;;;;;;;6.10;4.28;;;;;;;17.68;96.33;100267.81;5029749;28;20563;-51
2023/08/16 02:48:26;;;;;;;6.35;4.03;;;;;;;17.55;95.93;100238.66;5009876;28;20037;-52
2023/08/16 02:50:52;;;;;;;5.32;3.88;;;;;;;17.73;95.70;100261.38;5011737;28;20115;-49
2023/08/16 02:53:18;;;;;;;7.45;4.20;;;;;;;17.77;95.17;100272.56;5005534;28;20040;-51
2023/08/16 02:55:44;;;;;;;6.30;4.07;;;;;;;17.68;95.08;100247.63;5011215;28;20139;-49
2023/08/16 02:58:10;;;;;;;7.60;4.10;;;;;;;17.58;94.70;100222.72;5011121;28;20069;-49
2023/08/16 03:00:38;;;;;;;7.65;3.83;;;;;;;17.85;94.32;100269.53;5018351;28;20569;-49
2023/08/16 03:03:04;;;;;;;7.35;3.88;;;;;;;17.88;94.18;100279.88;5028071;28;20034;-48
2023/08/16 03:05:30;;;;;;;5.47;3.72;;;;;;;17.91;93.97;100284.94;5028925;28;20041;-49
2023/08/16 03:07:56;;;;;;;7.57;4.00;;;;;;;17.94;93.72;100277.75;5027034;28;20037;-52
2023/08/16 03:10:22;;;;;;;13.45;4.30;;;;;;;17.99;93.50;100280.97;5030440;28;20044;-49
2023/08/16 03:12:48;;;;;;;7.30;4.10;;;;;;;18.03;93.24;100281.66;5023056;28;20081;-53
2023/08/16 03:15:14;;;;;;;7.95;4.13;;;;;;;17.90;93.05;100255.16;4994604;28;20048;-53
2023/08/16 03:17:40;;;;;;;5.80;3.90;;;;;;;18.05;92.56;100277.16;5025672;28;20037;-48
2023/08/16 03:20:07;;;;;;;6.75;4.18;;;;;;;18.11;92.36;100285.56;5031426;28;20501;-50
2023/08/16 03:22:34;;;;;;;4.82;3.67;;;;;;;18.15;92.18;100286.25;5033728;28;20127;-48
2023/08/16 03:25:00;;;;;;;9.20;4.25;;;;;;;18.18;92.00;100286.91;5028960;28;20043;-46
2023/08/16 03:27:26;;;;;;;7.60;3.75;;;;;;;18.22;91.54;100295.47;5038277;28;20038;-50
2023/08/16 03:29:52;;;;;;;7.45;3.40;;;;;;;18.27;91.26;100295.22;5014448;28;20136;-51
2023/08/16 03:32:18;;;;;;;6.97;3.75;;;;;;;18.17;90.75;100265.94;5033236;28;20124;-52
2023/08/16 03:34:45;;;;;;;5.60;3.67;;;;;;;18.31;90.39;100287.09;5026858;28;20103;-51
2023/08/16 03:37:11;;;;;;;7.93;3.67;;;;;;;18.37;90.35;100291.16;5038357;28;20049;-53
2023/08/16 03:39:37;;;;;;;5.20;3.65;;;;;;;18.41;89.89;100297.94;5025143;28;20046;-46
2023/08/16 03:42:03;;;;;;;6.50;4.25;;;;;;;18.44;89.87;100295.97;5029724;28;20045;-48
2023/08/16 03:44:29;;;;;;;6.75;3.75;;;;;;;18.50;89.78;100300.03;5029701;28;20124;-48
2023/08/16 03:46:57;;;;;;;8.82;3.45;;;;;;;18.54;89.53;100296.31;5027407;28;20477;-56
2023/08/16 03:49:23;;;;;;;9.88;4.70;;;;;;;18.58;89.21;100297.84;5027325;28;20747;-50
2023/08/16 03:51:49;;;;;;;7.50;3.92;;;;;;;18.57;88.62;100299.66;5010904;28;20069;-49
2023/08/16 03:54:15;;;;;;;11.18;4.00;;;;;;;18.67;88.39;100309.66;5010131;28;20124;-53
2023/08/16 03:56:41;;;;;;;7.03;3.65;;;;;;;18.71;88.11;100319.91;5005435;28;20569;-48
2023/08/16 03:59:07;;;;;;;9.07;3.75;;;;;;;18.76;87.73;100314.38;5027410;28;20353;-53
2023/08/16 04:01:33;;;;;;;6.05;3.20;;;;;;;18.80;87.31;100303.56;5026513;28;20061;-51
2023/08/16 04:03:59;;;;;;;4.63;3.45;;;;;;;18.69;86.71;100281.41;5002253;28;20053;-53
2023/08/16 04:06:25;;;;;;;8.20;4.35;;;;;;;18.90;86.50;100310.00;5017324;28;20049;-53
2023/08/16 04:08:51;;;;;;;7.70;4.18;;;;;;;18.96;86.20;100312.28;5028565;28;20036;-54
2023/08/16 04:11:17;;;;;;;6.03;3.40;;;;;;;19.03;85.86;100318.03;5002631;28;20037;-55
2023/08/16 04:13:43;;;;;;;9.20;3.60;;;;;;;19.08;85.55;100318.63;5027573;28;20091;-53
2023/08/16 04:16:10;;;;;;;6.50;3.60;;;;;;;19.14;85.10;100312.13;5029386;28;20059;-54
2023/08/16 04:18:37;;;;;;;7.57;3.22;;;;;;;19.19;84.89;100317.97;5011105;28;20622;-53
2023/08/16 04:21:03;;;;;;;5.30;3.33;;;;;;;19.09;84.33;100291.31;5027351;28;20049;-54
2023/08/16 04:23:29;;;;;;;4.53;3.08;;;;;;;19.29;83.95;100317.34;5042556;28;20033;-54
2023/08/16 04:25:55;;;;;;;6.60;2.85;;;;;;;19.32;83.43;100314.50;5026272;28;20473;-52
2023/08/16 04:28:21;;;;;;;8.07;3.17;;;;;;;19.40;82.90;100314.06;5027712;28;20041;-55
2023/08/16 04:30:47;;;;;;;14.15;4.07;;;;;;;19.30;82.60;100284.75;5011181;28;20073;-54
2023/08/16 04:33:13;;;;;;;8.77;3.60;;;;;;;19.24;82.12;100264.03;5015419;28;20421;-51
2023/08/16 04:35:39;;;;;;;5.90;3.67;;;;;;;19.41;81.98;100281.47;5023928;28;20278;-50
2023/08/16 04:38:06;;;;;;;6.43;4.65;;;;;;;19.63;81.62;100318.78;5010143;28;20417;-53
2023/08/16 04:40:31;;;;;;;5.60;3.78;;;;;;;19.69;81.08;100307.88;5009580;28;20037;-49
2023/08/16 04:42:58;;;;;;;7.75;3.40;;;;;;;19.75;80.66;100315.41;5019052;28;20052;-52
2023/08/16 04:45:24;;;;;;;7.32;3.38;;;;;;;19.66;80.18;100291.38;5026892;28;20076;-51
2023/08/16 04:47:50;;;;;;;7.05;3.17;;;;;;;19.84;79.92;100319.25;5024052;28;20049;-51
2023/08/16 04:50:18;;;;;;;6.05;3.58;;;;;;;19.94;79.37;100322.19;5049143;28;20041;-51
2023/08/16 04:52:43;;;;;;;6.18;3.17;;;;;;;20.01;79.11;100319.06;5010360;28;20045;-49
2023/08/16 04:55:09;;;;;;;4.28;2.90;;;;;;;20.06;78.39;100313.47;5025288;28;20047;-54
2023/08/16 04:57:37;;;;;;;9.77;3.47;;;;;;;19.98;77.87;100300.78;5009166;28;20728;-53
2023/08/16 05:00:09;;;;;;;7.60;3.05;;;;;;;20.19;77.52;100317.06;5022955;28;20049;-54
2023/08/16 05:02:42;;;;;;;7.47;3.00;;;;;;;20.26;77.21;100310.41;5025050;28;20529;-50
2023/08/16 05:05:09;;;;;;;4.50;2.97;;;;;;;20.33;76.27;100318.81;5022547;28;20103;-51
2023/08/16 05:07:35;;;;;;;3.65;2.75;;;;;;;20.38;75.90;100314.94;5023067;28;20041;-53
2023/08/16 05:10:02;;;;;;;7.32;3.47;;;;;;;20.26;75.24;100284.84;5020346;28;20421;-50
2023/08/16 05:12:30;;;;;;;4.97;3.05;;;;;;;20.57;75.22;100317.22;5020034;28;20052;-55
2023/08/16 05:14:56;;;;;;;9.40;3.20;;;;;;;20.64;74.42;100324.66;5031866;28;20061;-48
2023/08/16 05:17:22;;;;;;;4.30;3.10;;;;;;;20.70;74.13;100318.13;4993214;28;20049;-53
2023/08/16 05:19:48;;;;;;;25.92;13.07;;;;;;;20.80;73.59;100313.91;5026145;28;20539;-54
2023/08/16 05:22:14;;;;;;;6.07;3.53;;;;;;;20.91;73.32;100314.06;5027698;28;20049;-53
2023/08/16 05:24:40;;;;;;;8.05;3.33;;;;;;;21.03;73.00;100315.03;5020115;28;20025;-49
2023/08/16 05:27:11;;;;;;;4.68;3.03;;;;;;;21.12;72.69;100320.53;5018054;28;20041;-52
2023/08/16 05:29:39;;;;;;;8.35;2.88;;;;;;;21.19;71.54;100315.72;5024655;28;20052;-53
2023/08/16 05:32:05;;;;;;;8.13;3.38;;;;;;;21.33;71.26;100325.34;5019569;28;20126;-51
2023/08/16 05:34:32;;;;;;;3.72;2.90;;;;;;;21.33;71.13;100306.84;5008438;28;20041;-52
2023/08/16 05:36:58;;;;;;;4.82;2.70;;;;;;;21.56;70.38;100325.44;5026214;28;20151;-52
2023/08/16 05:39:24;;;;;;;7.18;3.35;;;;;;;21.65;69.54;100323.97;5023943;28;20045;-52
2023/08/16 05:41:50;;;;;;;7.38;3.03;;;;;;;21.78;69.45;100324.81;5021883;28;20050;-51
2023/08/16 05:44:16;;;;;;;4.95;3.15;;;;;;;21.83;69.61;100305.94;5024698;28;20043;-53
2023/08/16 05:46:42;;;;;;;7.28;2.90;;;;;;;22.09;69.54;100320.84;5024885;28;20677;-48
2023/08/16 05:49:08;;;;;;;7.07;2.92;;;;;;;22.21;69.41;100311.19;5024882;28;20067;-54
2023/08/16 05:51:34;;;;;;;7.25;2.83;;;;;;;22.24;69.11;100300.38;5009340;28;20091;-52
2023/08/16 05:54:02;;;;;;;6.15;3.22;;;;;;;22.37;68.61;100304.66;5006566;28;20465;-51
2023/08/16 05:56:28;;;;;;;15.93;4.82;;;;;;;22.58;68.35;100319.94;5025022;28;20049;-53
2023/08/16 05:58:54;;;;;;;10.20;4.63;;;;;;;22.72;67.98;100317.13;5029713;28;20045;-56
2023/08/16 06:01:20;;;;;;;7.75;2.90;;;;;;;22.74;67.52;100309.91;5027771;28;20604;-56
2023/08/16 06:03:46;;;;;;;10.02;3.20;;;;;;;22.92;66.68;100319.16;5026363;28;20050;-54
2023/08/16 06:06:12;;;;;;;4.03;2.60;;;;;;;22.90;66.26;100297.19;5026203;28;20087;-54
2023/08/16 06:08:38;;;;;;;6.45;3.20;;;;;;;23.00;65.74;100300.00;5031551;28;20045;-53
2023/08/16 06:11:04;;;;;;;4.25;2.63;;;;;;;23.31;65.13;100320.56;5013608;28;20054;-55
2023/08/16 06:13:30;;;;;;;7.80;2.78;;;;;;;23.48;64.85;100312.19;5029476;28;20060;-54
2023/08/16 06:15:56;;;;;;;4.45;2.47;;;;;;;23.67;63.94;100316.88;5030172;28;20067;-51
2023/08/16 06:18:22;;;;;;;16.95;11.80;;;;;;;23.88;62.91;100317.00;4997034;28;20064;-57
2023/08/16 06:20:48;;;;;;;5.43;2.63;;;;;;;24.10;61.77;100311.66;5030026;28;20573;-56
2023/08/16 06:23:15;;;;;;;4.78;2.25;;;;;;;24.61;60.32;100317.25;5029608;28;20034;-56
2023/08/16 06:25:41;;;;;;;9.43;4.45;;;;;;;25.52;57.25;100314.00;5029767;28;20041;-53
2023/08/16 06:28:07;;;;;;;10.10;5.10;;;;;;;26.47;54.56;100294.00;5029383;28;20042;-55
2023/08/16 06:30:33;;;;;;;5.85;2.90;;;;;;;27.62;52.48;100311.75;5031083;28;20042;-54
2023/08/16 06:32:58;;;;;;;10.05;3.20;;;;;;;28.72;50.33;100310.72;5031049;28;20037;-51
2023/08/16 06:35:24;;;;;;;6.75;3.13;;;;;;;29.77;48.27;100314.16;5028193;28;20076;-53
2023/08/16 06:37:50;;;;;;;4.65;2.50;;;;;;;30.78;45.83;100317.66;5012943;28;20073;-57
2023/08/16 06:40:17;;;;;;;5.22;3.03;;;;;;;31.66;43.39;100277.44;5029140;28;20060;-54
2023/08/16 06:42:42;;;;;;;4.38;2.28;;;;;;;32.86;41.04;100311.94;5024918;28;20047;-56
2023/08/16 06:45:09;;;;;;;4.25;2.35;;;;;;;33.81;38.60;100310.34;5029036;28;20045;-54
2023/08/16 06:47:35;;;;;;;5.60;3.97;;;;;;;34.62;36.63;100288.47;5008466;28;20409;-55
2023/08/16 06:50:01;;;;;;;19.73;13.35;;;;;;;35.62;34.99;100312.56;5026435;28;20055;-56
2023/08/16 06:52:31;;;;;;;4.90;2.60;;;;;;;36.30;33.42;100306.25;5021616;28;20042;-53
2023/08/16 06:54:57;;;;;;;4.53;3.78;;;;;;;36.90;32.30;100308.03;5023580;28;20044;-54
2023/08/16 06:57:24;;;;;;;4.32;1.80;;;;;;;37.54;30.32;100307.41;5023956;28;20045;-54
2023/08/16 06:59:50;;;;;;;6.57;1.73;;;;;;;38.31;29.03;100313.81;5032284;28;20057;-57
2023/08/16 07:02:17;;;;;;;3.63;2.28;;;;;;;39.01;28.28;100301.03;5037590;28;20574;-56
2023/08/16 07:04:43;;;;;;;4.22;1.73;;;;;;;39.70;26.74;100281.69;5028649;28;20084;-55
2023/08/16 07:07:10;;;;;;;4.97;1.80;;;;;;;40.36;25.83;100308.97;5032109;28;20045;-55
2023/08/16 07:09:36;;;;;;;3.72;2.40;;;;;;;40.07;26.33;100315.22;5026140;28;20509;-55
2023/08/16 07:12:02;;;;;;;2.65;1.90;;;;;;;40.77;25.21;100318.25;5029267;28;20050;-57
2023/08/16 07:14:28;;;;;;;5.05;2.15;;;;;;;41.53;24.22;100311.91;5028480;28;20049;-55
2023/08/16 07:16:55;;;;;;;3.20;2.20;;;;;;;42.40;22.92;100321.66;5032406;28;20042;-57
2023/08/16 07:19:21;;;;;;;5.80;2.33;;;;;;;42.98;22.34;100313.13;5031547;28;20048;-57
2023/08/16 07:21:48;;;;;;;3.17;2.42;;;;;;;43.46;21.74;100323.44;5028209;28;20091;-57
2023/08/16 07:24:14;;;;;;;4.20;2.50;;;;;;;43.96;21.19;100322.53;5027300;28;20042;-57
2023/08/16 07:26:40;;;;;;;6.07;2.58;;;;;;;44.39;20.70;100302.44;5024022;28;20281;-57
2023/08/16 07:29:07;;;;;;;4.00;2.55;;;;;;;44.66;20.34;100311.50;5012356;28;20416;-58
2023/08/16 07:31:33;;;;;;;4.40;2.33;;;;;;;44.81;19.54;100307.22;5029728;28;20042;-57
2023/08/16 07:33:59;;;;;;;4.35;2.42;;;;;;;45.35;19.57;100325.22;5016622;28;20037;-58
2023/08/16 07:36:27;;;;;;;8.05;2.55;;;;;;;45.69;18.58;100331.22;5025551;28;20064;-57
2023/08/16 07:38:53;;;;;;;4.85;2.60;;;;;;;46.08;18.14;100326.16;5029011;28;20091;-58
2023/08/16 07:41:19;;;;;;;6.05;2.35;;;;;;;46.33;17.65;100317.16;5029959;28;20041;-60
2023/08/16 07:43:45;;;;;;;3.83;3.20;;;;;;;46.52;17.43;100321.03;5019750;28;20064;-58
2023/08/16 07:46:11;;;;;;;3.00;2.58;;;;;;;46.64;16.97;100312.56;5029416;28;20517;-58
2023/08/16 07:48:37;;;;;;;3.92;2.40;;;;;;;46.80;16.45;100318.88;5029706;28;20045;-57
2023/08/16 07:51:03;;;;;;;3.77;2.60;;;;;;;47.15;16.24;100319.69;5020160;28;20136;-59
2023/08/16 07:53:29;;;;;;;3.30;2.83;;;;;;;47.53;16.28;100314.66;5009366;28;20411;-59
2023/08/16 07:55:56;;;;;;;3.57;2.77;;;;;;;47.54;16.06;100299.75;5022096;28;20048;-59
2023/08/16 07:58:22;;;;;;;5.25;2.90;;;;;;;47.48;15.89;100300.88;5025760;28;20045;-58
2023/08/16 08:00:52;;;;;;;2.83;2.60;;;;;;;47.72;15.77;100306.63;4999453;28;20095;-59
2023/08/16 08:03:19;;;;;;;3.72;2.83;;;;;;;46.41;16.62;100288.28;5029236;28;20030;-58
2023/08/16 08:05:45;;;;;;;3.30;2.60;;;;;;;46.29;17.00;100302.28;5027441;28;20194;-58
2023/08/16 08:08:11;;;;;;;4.95;2.63;;;;;;;46.55;17.03;100311.44;5027423;28;21163;-58
2023/08/16 08:10:37;;;;;;;4.13;1.83;;;;;;;45.81;17.31;100278.78;5028830;28;20190;-58
2023/08/16 08:13:03;;;;;;;4.88;2.30;;;;;;;43.97;18.47;100295.94;5028059;28;20053;-57
2023/08/16 08:15:29;;;;;;;2.80;2.50;;;;;;;43.78;18.52;100296.22;5027539;28;20041;-57
2023/08/16 08:17:55;;;;;;;6.07;2.38;;;;;;;44.03;18.54;100297.63;5018295;28;20512;-55
2023/08/16 08:20:21;;;;;;;3.20;2.42;;;;;;;44.13;18.33;100290.34;5011471;28;20049;-59
2023/08/16 08:22:47;;;;;;;11.65;2.50;;;;;;;44.29;18.28;100286.72;5015046;28;20042;-57
2023/08/16 08:25:13;;;;;;;6.15;1.70;;;;;;;43.23;19.20;100292.72;5022722;28;20420;-58
2023/08/16 08:27:38;;;;;;;2.25;1.65;;;;;;;42.29;19.58;100286.19;5025548;28;20506;-56
2023/08/16 08:30:07;;;;;;;4.55;2.17;;;;;;;42.39;19.93;100281.75;5027848;28;20041;-57
2023/08/16 08:32:33;;;;;;;3.33;2.15;;;;;;;43.09;19.39;100268.44;5027225;28;20073;-58
2023/08/16 08:34:59;;;;;;;1.90;1.80;;;;;;;43.68;18.93;100268.72;5028866;28;20128;-52
2023/08/16 08:37:25;;;;;;;3.58;2.80;;;;;;;43.51;19.14;100289.84;5023427;28;20569;-50
2023/08/16 08:39:51;;;;;;;4.30;2.65;;;;;;;43.94;18.77;100278.09;4994591;28;20351;-58
2023/08/16 08:42:17;;;;;;;3.05;2.47;;;;;;;44.69;18.56;100279.97;5027230;28;20049;-55
2023/08/16 08:44:43;;;;;;;3.67;2.67;;;;;;;45.21;18.00;100284.75;5020232;28;20083;-55
2023/08/16 08:47:09;;;;;;;4.70;2.45;;;;;;;45.73;17.57;100293.84;5029022;28;20563;-55
2023/08/16 08:49:36;;;;;;;4.18;3.22;;;;;;;46.10;17.44;100299.22;5028730;28;20042;-53
2023/08/16 08:52:03;;;;;;;5.00;2.50;;;;;;;45.88;17.25;100269.19;5027967;28;20045;-53
2023/08/16 08:54:30;;;;;;;2.90;2.70;;;;;;;46.04;17.43;100303.03;5027385;28;20037;-58
2023/08/16 08:56:59;;;;;;;3.25;3.03;;;;;;;46.06;17.08;100303.59;5024689;28;20045;-56
2023/08/16 08:59:27;;;;;;;3.22;3.03;;;;;;;46.45;16.99;100303.97;5010882;28;20072;-58
2023/08/16 09:01:53;;;;;;;4.90;2.17;;;;;;;45.87;17.16;100277.69;5026966;28;20056;-56
2023/08/16 09:04:21;;;;;;;5.72;2.10;;;;;;;43.40;18.87;100283.38;5028124;28;20136;-57
2023/08/16 09:06:48;;;;;;;3.05;2.50;;;;;;;41.46;20.41;100284.72;5026915;28;20804;-56
2023/08/16 09:09:14;;;;;;;6.53;2.40;;;;;;;42.85;20.04;100275.16;5010075;28;20065;-54
2023/08/16 09:11:41;;;;;;;6.18;2.72;;;;;;;44.13;18.50;100282.13;5028074;28;20045;-55
2023/08/16 09:14:07;;;;;;;;;;;;;;;44.99;18.26;100276.63;5022989;28;20113;-53
2023/08/16 09:16:33;;;;;;;4.50;4.07;;;;;;;45.73;17.41;100280.09;4993877;28;19924;-54
2023/08/16 09:19:02;;;;;;;10.02;3.10;;;;;;;46.33;17.13;100290.47;5027218;28;20040;-54
2023/08/16 09:21:30;;;;;;;5.65;2.85;;;;;;;46.67;16.75;100287.22;5010644;28;20045;-56
2023/08/16 09:24:01;;;;;;;3.53;2.55;;;;;;;46.59;16.91;100285.00;5027575;28;20398;-57
2023/08/16 09:26:28;;;;;;;4.07;2.78;;;;;;;46.58;16.77;100288.88;5026957;28;20069;-54
2023/08/16 09:29:02;;;;;;;3.10;2.17;;;;;;;45.88;17.53;100285.69;5023327;28;20037;-52
2023/08/16 09:31:38;;;;;;;3.58;2.50;;;;;;;43.83;18.59;100276.28;5024384;28;20045;-54
2023/08/16 09:34:05;;;;;;;2.53;2.33;;;;;;;44.51;18.22;100256.47;5010380;28;20041;-55
2023/08/16 09:36:35;;;;;;;5.45;2.70;;;;;;;45.73;16.95;100274.59;5010342;28;20402;-56
2023/08/16 09:39:11;;;;;;;6.18;2.90;;;;;;;46.37;16.52;100268.75;5019812;28;20501;-55
2023/08/16 09:41:50;;;;;;;2.92;2.10;;;;;;;46.70;16.39;100278.41;5026022;28;20041;-54
2023/08/16 09:44:17;;;;;;;4.15;2.05;;;;;;;43.99;18.48;100269.09;5003063;28;20111;-57
2023/08/16 09:46:43;;;;;;;4.47;2.50;;;;;;;42.62;19.63;100265.16;5008563;28;20446;-56
2023/08/16 09:49:12;;;;;;;6.95;2.65;;;;;;;43.89;19.02;100262.41;5026750;28;20033;-56
2023/08/16 09:51:40;;;;;;;6.82;3.25;;;;;;;45.09;18.13;100272.06;5010655;28;20104;-55
2023/08/16 09:54:14;;;;;;;6.38;2.90;;;;;;;45.81;17.22;100270.53;5026977;28;20647;-53
2023/08/16 09:56:43;;;;;;;3.15;2.85;;;;;;;46.38;17.17;100270.38;5026333;28;20049;-56
2023/08/16 09:59:09;;;;;;;3.67;2.80;;;;;;;46.35;16.81;100273.69;5022075;28;20041;-54
2023/08/16 10:01:35;;;;;;;4.38;3.22;;;;;;;44.80;18.36;100257.03;5024184;28;20045;-57
2023/08/16 10:04:02;;;;;;;2.43;1.93;;;;;;;44.53;18.74;100262.53;5026544;28;20057;-54
2023/08/16 10:06:33;;;;;;;4.45;2.08;;;;;;;43.01;19.54;100254.31;5022127;28;20037;-54
2023/08/16 10:08:59;;;;;;;6.63;4.03;;;;;;;42.12;20.44;100236.91;5016098;28;20080;-59
2023/08/16 10:11:28;;;;;;;6.03;2.90;;;;;;;42.81;19.86;100257.59;5018163;28;20080;-56
2023/08/16 10:13:55;;;;;;;3.80;2.08;;;;;;;41.60;21.01;100252.53;5026598;28;20069;-56
2023/08/16 10:16:22;;;;;;;4.20;2.60;;;;;;;39.84;22.78;100252.44;5021385;28;20127;-57
2023/08/16 10:18:50;;;;;;;4.47;1.92;;;;;;;41.15;21.14;100258.63;5026083;28;20103;-56
2023/08/16 10:21:17;;;;;;;3.00;2.42;;;;;;;41.57;21.02;100256.56;5021958;28;20517;-54
2023/08/16 10:23:44;;;;;;;5.68;2.50;;;;;;;43.16;20.25;100253.75;5024081;28;20445;-54
2023/08/16 10:26:17;;;;;;;2.80;2.50;;;;;;;44.47;19.26;100252.59;5009470;28;20515;-55
2023/08/16 10:28:47;;;;;;;5.03;2.90;;;;;;;45.26;18.26;100227.13;5022545;28;20046;-57
2023/08/16 10:31:14;;;;;;;4.22;1.65;;;;;;;43.28;19.24;100225.19;5022424;28;20140;-58
2023/08/16 10:33:44;;;;;;;3.05;2.50;;;;;;;42.37;19.64;100245.59;5008806;28;20499;-57
2023/08/16 10:36:11;;;;;;;3.05;2.13;;;;;;;43.71;18.93;100249.00;5016634;28;20039;-57
2023/08/16 10:38:37;;;;;;;4.15;2.55;;;;;;;44.86;18.08;100247.69;5055913;28;20045;-57
2023/08/16 10:41:14;;;;;;;2.35;1.98;;;;;;;43.93;18.78;100249.00;5025502;28;20531;-57
2023/08/16 10:43:49;;;;;;;3.13;2.47;;;;;;;42.60;20.02;100237.25;5036621;28;20378;-56
2023/08/16 10:46:31;;;;;;;2.40;2.20;;;;;;;43.89;19.21;100242.41;5031160;28;20091;-56
2023/08/16 10:48:59;;;;;;;2.83;2.55;;;;;;;45.16;18.46;100247.13;5031173;28;20127;-56
2023/08/16 10:51:25;;;;;;;2.92;2.70;;;;;;;44.21;19.09;100237.81;5010255;28;20060;-54
2023/08/16 10:53:51;;;;;;;4.80;3.20;;;;;;;44.76;18.35;100225.69;5009273;28;20045;-57
2023/08/16 10:56:20;;;;;;;4.65;2.90;;;;;;;45.97;17.92;100237.31;5042274;28;20678;-56
2023/08/16 10:58:49;;;;;;;4.25;3.15;;;;;;;46.55;17.57;100237.94;5030902;28;20099;-58
2023/08/16 11:01:16;;;;;;;3.40;3.10;;;;;;;47.10;16.82;100236.25;5012653;28;20041;-58
2023/08/16 11:03:46;;;;;;;2.92;2.03;;;;;;;46.91;16.83;100237.94;5029435;28;20456;-55
2023/08/16 11:06:14;;;;;;;3.65;2.10;;;;;;;43.83;18.72;100216.00;5029774;28;20049;-56
2023/08/16 11:08:44;;;;;;;3.25;2.08;;;;;;;41.70;20.68;100220.78;5026447;28;20509;-56
2023/08/16 11:11:12;;;;;;;2.72;2.00;;;;;;;42.53;20.15;100231.09;5031139;28;20037;-55
2023/08/16 11:13:41;;;;;;;;;;;;;;;41.52;20.63;100212.75;5024202;28;20509;-56
2023/08/16 11:16:09;;;;;;;3.50;2.65;;;;;;;41.23;21.06;100216.50;5042713;28;20059;-57
2023/08/16 11:18:37;;;;;;;2.90;2.40;;;;;;;41.94;20.68;100217.97;5033476;28;20147;-56
2023/08/16 11:21:03;;;;;;;;;;;;;;;43.70;19.18;100217.25;5037775;28;20049;-58
2023/08/16 11:23:31;;;;;;;2.67;2.45;;;;;;;45.08;18.01;100207.25;5027887;28;19979;-57